createdAt,value
2019-02-18T00:02:19.993Z,4.28
2019-02-18T00:04:46.123Z,4.51
2019-02-18T00:07:14.789Z,4.43
2019-02-18T00:09:40.653Z,4.28
2019-02-18T00:12:06.942Z,4.50
2019-02-18T00:14:33.054Z,4.42
2019-02-18T00:16:59.405Z,4.23
2019-02-18T00:19:25.585Z,4.27
2019-02-18T00:21:52.883Z,4.47
2019-02-18T00:24:22.764Z,4.49
2019-02-18T00:26:48.873Z,4.56
2019-02-18T00:29:15.990Z,4.50
2019-02-18T00:31:42.052Z,4.42
2019-02-18T00:34:08.297Z,4.49
2019-02-18T00:36:34.376Z,4.55
2019-02-18T00:39:10.720Z,4.38
2019-02-18T00:41:36.797Z,4.44
2019-02-18T00:44:04.401Z,4.44
2019-02-18T00:46:30.498Z,4.50
2019-02-18T00:48:56.587Z,4.56
2019-02-18T00:51:22.691Z,4.54
2019-02-18T00:53:48.788Z,4.62
2019-02-18T00:56:14.981Z,4.65
2019-02-18T00:58:41.061Z,4.54
2019-02-18T01:01:07.252Z,4.53
2019-02-18T01:03:33.441Z,4.53
2019-02-18T01:05:59.621Z,4.51
2019-02-18T01:08:25.792Z,4.55
2019-02-18T01:10:52.090Z,4.48
2019-02-18T01:13:18.271Z,4.54
2019-02-18T01:15:44.428Z,4.43
2019-02-18T01:18:10.523Z,4.46
2019-02-18T01:20:37.370Z,4.35
2019-02-18T01:23:05.998Z,4.19
2019-02-18T01:25:32.073Z,4.14
2019-02-18T01:27:58.526Z,4.06
2019-02-18T01:30:24.739Z,3.87
2019-02-18T01:32:51.037Z,4.01
2019-02-18T01:35:17.117Z,4.14
2019-02-18T01:37:46.163Z,4.09
2019-02-18T01:40:12.783Z,4.17
2019-02-18T01:42:39.136Z,4.11
2019-02-18T01:45:08.370Z,4.01
2019-02-18T01:47:34.445Z,3.98
2019-02-18T01:50:05.310Z,4.03
2019-02-18T01:52:31.414Z,4.04
2019-02-18T01:54:57.493Z,3.91
2019-02-18T01:57:23.565Z,3.83
2019-02-18T01:59:49.889Z,3.65
2019-02-18T02:02:16.041Z,3.78
2019-02-18T02:04:42.344Z,3.70
2019-02-18T02:07:08.605Z,3.71
2019-02-18T02:09:34.902Z,3.57
2019-02-18T02:12:04.806Z,3.46
2019-02-18T02:14:30.914Z,3.47
2019-02-18T02:16:57.073Z,3.44
2019-02-18T02:19:23.382Z,3.31
2019-02-18T02:21:49.488Z,3.14
2019-02-18T02:24:15.651Z,3.22
2019-02-18T02:26:41.761Z,3.18
2019-02-18T02:29:07.936Z,3.21
2019-02-18T02:31:34.146Z,3.22
2019-02-18T02:34:00.226Z,3.28
2019-02-18T02:36:34.395Z,3.26
2019-02-18T02:39:00.571Z,3.18
2019-02-18T02:41:31.254Z,3.23
2019-02-18T02:43:57.320Z,2.91
2019-02-18T02:46:23.510Z,3.11
2019-02-18T02:48:50.704Z,3.15
2019-02-18T02:51:17.063Z,3.03
2019-02-18T02:53:43.267Z,2.81
2019-02-18T02:56:09.323Z,2.93
2019-02-18T02:58:35.435Z,2.88
2019-02-18T03:01:04.540Z,3.00
2019-02-18T03:03:34.361Z,2.83
2019-02-18T03:06:06.130Z,3.00
2019-02-18T03:08:32.330Z,2.80
2019-02-18T03:10:58.391Z,2.74
2019-02-18T03:13:25.581Z,2.83
2019-02-18T03:15:51.654Z,2.95
2019-02-18T03:18:17.756Z,2.92
2019-02-18T03:20:44.940Z,2.82
2019-02-18T03:23:11.317Z,2.89
2019-02-18T03:25:38.680Z,2.66
2019-02-18T03:28:17.723Z,2.54
2019-02-18T03:30:50.627Z,2.48
2019-02-18T03:33:23.385Z,2.38
2019-02-18T03:35:49.468Z,2.63
2019-02-18T03:38:15.564Z,2.71
2019-02-18T03:40:41.786Z,2.61
2019-02-18T03:43:07.967Z,2.80
2019-02-18T03:45:34.206Z,2.78
2019-02-18T03:48:04.906Z,2.80
2019-02-18T03:50:30.964Z,2.76
2019-02-18T03:52:57.271Z,2.82
2019-02-18T03:55:23.467Z,2.89
2019-02-18T03:57:49.881Z,2.97
2019-02-18T04:00:16.085Z,2.93
2019-02-18T04:02:42.248Z,2.97
2019-02-18T04:05:10.859Z,3.02
2019-02-18T04:07:36.954Z,3.06
2019-02-18T04:10:07.251Z,2.98
2019-02-18T04:12:33.315Z,2.91
2019-02-18T04:14:59.515Z,3.02
2019-02-18T04:17:26.682Z,3.01
2019-02-18T04:19:52.931Z,3.16
2019-02-18T04:22:19.041Z,3.19
2019-02-18T04:24:45.141Z,3.17
2019-02-18T04:27:11.237Z,3.05
2019-02-18T04:29:37.323Z,3.04
2019-02-18T04:32:05.048Z,3.00
2019-02-18T04:34:31.146Z,2.96
2019-02-18T04:36:57.266Z,2.84
2019-02-18T04:39:23.339Z,2.90
2019-02-18T04:41:49.448Z,2.92
2019-02-18T04:44:15.511Z,2.95
2019-02-18T04:46:41.746Z,2.97
2019-02-18T04:49:07.830Z,2.90
2019-02-18T04:51:33.927Z,2.76
2019-02-18T04:53:59.995Z,2.68
2019-02-18T04:56:26.172Z,2.57
2019-02-18T04:58:52.361Z,2.77
2019-02-18T05:01:18.460Z,2.69
2019-02-18T05:03:44.578Z,2.71
2019-02-18T05:06:10.661Z,2.70
2019-02-18T05:08:36.755Z,2.60
2019-02-18T05:11:02.826Z,2.72
2019-02-18T05:13:29.059Z,2.70
2019-02-18T05:15:55.138Z,2.74
2019-02-18T05:18:21.369Z,2.66
2019-02-18T05:20:47.525Z,2.60
2019-02-18T05:23:13.735Z,2.57
2019-02-18T05:25:39.934Z,2.64
2019-02-18T05:28:06.009Z,2.66
2019-02-18T05:30:32.099Z,2.53
2019-02-18T05:32:58.300Z,2.32
2019-02-18T05:35:24.411Z,2.42
2019-02-18T05:37:50.481Z,2.46
2019-02-18T05:40:16.598Z,2.45
2019-02-18T05:42:42.762Z,2.35
2019-02-18T05:45:08.962Z,2.11
2019-02-18T05:47:34.998Z,2.05
2019-02-18T05:50:01.160Z,2.23
2019-02-18T05:52:27.247Z,2.30
2019-02-18T05:54:53.351Z,2.26
2019-02-18T05:57:19.521Z,2.15
2019-02-18T05:59:45.729Z,2.15
2019-02-18T06:02:11.904Z,2.21
2019-02-18T06:04:37.984Z,2.09
2019-02-18T06:07:04.188Z,2.10
2019-02-18T06:09:31.396Z,2.19
2019-02-18T06:11:57.479Z,2.05
2019-02-18T06:14:23.551Z,2.04
2019-02-18T06:16:49.662Z,2.14
2019-02-18T06:19:15.742Z,2.13
2019-02-18T06:21:41.951Z,2.23
2019-02-18T06:24:08.023Z,2.23
2019-02-18T06:26:34.124Z,2.26
2019-02-18T06:29:00.228Z,2.15
2019-02-18T06:31:26.358Z,2.28
2019-02-18T06:33:52.449Z,2.27
2019-02-18T06:36:18.521Z,2.25
2019-02-18T06:38:44.628Z,2.36
2019-02-18T06:41:10.815Z,2.27
2019-02-18T06:43:37.016Z,2.20
2019-02-18T06:46:17.078Z,2.24
2019-02-18T06:48:50.876Z,2.28
2019-02-18T06:51:17.236Z,2.25
2019-02-18T06:53:43.299Z,2.24
2019-02-18T06:56:09.483Z,2.21
2019-02-18T06:58:40.548Z,2.37
2019-02-18T07:01:08.539Z,2.25
2019-02-18T07:03:36.525Z,2.23
2019-02-18T07:06:10.760Z,2.42
2019-02-18T07:08:56.124Z,2.48
2019-02-18T07:11:24.353Z,2.54
2019-02-18T07:13:50.464Z,2.63
2019-02-18T07:16:16.562Z,2.71
2019-02-18T07:18:42.705Z,2.71
2019-02-18T07:21:08.793Z,2.63
2019-02-18T07:23:34.979Z,2.57
2019-02-18T07:26:01.181Z,2.74
2019-02-18T07:28:27.270Z,2.77
2019-02-18T07:30:53.367Z,2.92
2019-02-18T07:33:19.476Z,2.98
2019-02-18T07:35:45.668Z,3.07
2019-02-18T07:38:11.844Z,3.20
2019-02-18T07:40:37.950Z,3.34
2019-02-18T07:43:04.138Z,3.44
2019-02-18T07:45:30.327Z,3.52
2019-02-18T07:47:56.452Z,3.56
2019-02-18T07:50:22.677Z,3.59
2019-02-18T07:52:48.744Z,3.76
2019-02-18T07:55:14.882Z,3.85
2019-02-18T07:57:40.968Z,3.98
2019-02-18T08:00:10.572Z,4.04
2019-02-18T08:02:36.670Z,4.15
2019-02-18T08:05:04.356Z,4.28
2019-02-18T08:07:30.450Z,4.37
2019-02-18T08:09:56.523Z,4.48
2019-02-18T08:12:22.631Z,4.57
2019-02-18T08:14:48.817Z,4.70
2019-02-18T08:17:14.940Z,4.78
2019-02-18T08:19:41.031Z,4.89
2019-02-18T08:22:07.094Z,4.98
2019-02-18T08:24:33.221Z,5.10
2019-02-18T08:26:59.310Z,5.15
2019-02-18T08:29:25.421Z,5.24
2019-02-18T08:31:51.510Z,5.38
2019-02-18T08:34:17.627Z,5.43
2019-02-18T08:36:44.597Z,5.65
2019-02-18T08:39:10.785Z,5.74
2019-02-18T08:41:36.853Z,5.79
2019-02-18T08:44:03.065Z,5.88
2019-02-18T08:46:29.258Z,5.96
2019-02-18T08:48:55.394Z,6.00
2019-02-18T08:51:21.460Z,6.15
2019-02-18T08:53:48.012Z,6.26
2019-02-18T08:56:14.136Z,6.38
2019-02-18T08:58:40.232Z,6.47
2019-02-18T09:01:06.341Z,6.64
2019-02-18T09:03:32.451Z,6.73
2019-02-18T09:05:58.548Z,6.83
2019-02-18T09:08:24.615Z,6.92
2019-02-18T09:10:50.742Z,6.99
2019-02-18T09:13:16.914Z,7.08
2019-02-18T09:15:43.026Z,7.27
2019-02-18T09:18:09.116Z,7.49
2019-02-18T09:22:31.851Z,7.61
2019-02-18T09:25:05.915Z,7.69
2019-02-18T09:27:32.035Z,7.81
2019-02-18T09:29:58.217Z,8.03
2019-02-18T09:32:24.448Z,8.21
2019-02-18T09:34:53.228Z,8.37
2019-02-18T09:37:18.823Z,8.56
2019-02-18T09:39:45.031Z,8.72
2019-02-18T09:42:11.250Z,8.85
2019-02-18T09:44:37.343Z,9.14
2019-02-18T09:47:03.547Z,9.52
2019-02-18T09:49:29.754Z,9.68
2019-02-18T09:51:55.878Z,9.59
2019-02-18T09:54:21.963Z,9.85
2019-02-18T09:56:48.201Z,10.08
2019-02-18T09:59:14.294Z,10.11
2019-02-18T10:01:43.062Z,10.10
2019-02-18T10:04:08.790Z,10.17
2019-02-18T10:06:34.933Z,10.44
2019-02-18T10:09:01.135Z,10.85
2019-02-18T10:11:27.342Z,11.18
2019-02-18T10:13:53.421Z,11.54
2019-02-18T10:16:19.511Z,11.88
2019-02-18T10:18:45.803Z,11.91
2019-02-18T10:21:12.036Z,12.02
2019-02-18T10:23:38.166Z,11.97
2019-02-18T10:26:04.249Z,12.19
2019-02-18T10:28:30.520Z,12.29
2019-02-18T10:30:56.697Z,12.59
2019-02-18T10:33:22.836Z,12.99
2019-02-18T10:35:48.933Z,12.98
2019-02-18T10:38:15.032Z,13.36
2019-02-18T10:40:41.222Z,13.57
2019-02-18T10:43:07.314Z,14.66
2019-02-18T10:45:33.445Z,14.48
2019-02-18T10:47:59.538Z,14.56
2019-02-18T10:50:25.657Z,14.49
2019-02-18T10:52:51.767Z,15.49
2019-02-18T10:55:18.069Z,15.64
2019-02-18T10:57:44.194Z,15.41
2019-02-18T11:00:14.937Z,15.97
2019-02-18T11:02:41.035Z,16.14
2019-02-18T11:05:07.783Z,15.44
2019-02-18T11:07:33.974Z,15.05
2019-02-18T11:10:00.339Z,15.03
2019-02-18T11:12:26.388Z,14.54
2019-02-18T11:14:52.473Z,14.64
2019-02-18T11:17:18.554Z,14.91
2019-02-18T11:19:44.627Z,14.98
2019-02-18T11:22:10.751Z,14.99
2019-02-18T11:24:37.164Z,15.20
2019-02-18T11:27:03.376Z,15.80
2019-02-18T11:29:29.574Z,16.32
2019-02-18T11:31:55.768Z,17.04
2019-02-18T11:34:21.893Z,17.04
2019-02-18T11:36:47.986Z,17.28
2019-02-18T11:39:15.168Z,17.71
2019-02-18T11:41:41.492Z,17.71
2019-02-18T11:44:07.661Z,18.30
2019-02-18T11:46:34.019Z,18.35
2019-02-18T11:49:00.213Z,18.37
2019-02-18T11:51:26.541Z,17.76
2019-02-18T11:53:52.652Z,17.66
2019-02-18T11:56:18.745Z,17.43
2019-02-18T11:58:44.846Z,17.09
2019-02-18T12:01:10.936Z,17.30
2019-02-18T12:03:37.037Z,18.28
2019-02-18T12:06:03.312Z,18.58
2019-02-18T12:08:29.582Z,18.91
2019-02-18T12:10:55.889Z,19.12
2019-02-18T12:13:21.998Z,18.76
2019-02-18T12:15:48.113Z,19.40
2019-02-18T12:18:14.309Z,19.55
2019-02-18T12:20:40.817Z,19.60
2019-02-18T12:23:07.853Z,20.20
2019-02-18T12:25:33.969Z,19.32
2019-02-18T12:28:00.058Z,19.13
2019-02-18T12:30:26.265Z,19.66
2019-02-18T12:32:52.367Z,19.23
2019-02-18T12:35:18.601Z,20.27
2019-02-18T12:37:54.664Z,20.08
2019-02-18T12:40:12.936Z,19.68
2019-02-18T12:42:39.146Z,19.94
2019-02-18T12:45:12.253Z,19.92
2019-02-18T12:47:38.579Z,20.15
2019-02-18T12:50:06.515Z,20.53
2019-02-18T12:52:32.817Z,20.95
2019-02-18T12:55:00.377Z,20.87
2019-02-18T12:57:27.041Z,20.81
2019-02-18T12:59:53.740Z,20.30
2019-02-18T13:02:20.027Z,20.23
2019-02-18T13:04:46.174Z,19.65
2019-02-18T13:07:12.343Z,20.90
2019-02-18T13:09:38.441Z,20.33
2019-02-18T13:12:04.628Z,20.55
2019-02-18T13:14:30.834Z,21.18
2019-02-18T13:16:57.026Z,22.06
2019-02-18T13:19:23.145Z,22.26
2019-02-18T13:21:49.374Z,22.08
2019-02-18T13:24:15.891Z,21.75
2019-02-18T13:26:42.248Z,21.95
2019-02-18T13:29:08.596Z,22.01
2019-02-18T13:31:34.918Z,21.09
2019-02-18T13:34:01.142Z,21.56
2019-02-18T13:36:27.442Z,21.65
2019-02-18T13:38:53.749Z,21.98
2019-02-18T13:41:19.963Z,21.53
2019-02-18T13:43:46.187Z,21.98
2019-02-18T13:46:12.635Z,21.25
2019-02-18T13:48:38.739Z,21.07
2019-02-18T13:51:04.985Z,21.95
2019-02-18T13:53:31.075Z,22.63
2019-02-18T13:55:57.330Z,21.98
2019-02-18T13:58:23.529Z,21.66
2019-02-18T14:00:49.748Z,21.61
2019-02-18T14:03:15.981Z,22.26
2019-02-18T14:05:42.303Z,21.62
2019-02-18T14:08:08.498Z,21.55
2019-02-18T14:10:34.699Z,21.30
2019-02-18T14:13:00.839Z,21.38
2019-02-18T14:15:27.170Z,21.51
2019-02-18T14:17:53.449Z,21.36
2019-02-18T14:20:19.865Z,21.03
2019-02-18T14:22:47.391Z,21.02
2019-02-18T14:25:13.869Z,21.00
2019-02-18T14:27:40.175Z,19.99
2019-02-18T14:30:11.998Z,20.76
2019-02-18T14:32:38.329Z,20.50
2019-02-18T14:35:05.433Z,20.77
2019-02-18T14:37:31.772Z,21.20
2019-02-18T14:39:57.955Z,20.89
2019-02-18T14:42:24.762Z,20.90
2019-02-18T14:44:51.906Z,20.01
2019-02-18T14:47:18.342Z,20.21
2019-02-18T14:49:44.678Z,19.93
2019-02-18T14:52:11.118Z,19.95
2019-02-18T14:54:37.341Z,19.72
2019-02-18T14:57:03.592Z,20.09
2019-02-18T14:59:29.780Z,20.43
2019-02-18T15:01:57.663Z,20.39
2019-02-18T15:04:23.874Z,20.01
2019-02-18T15:06:50.074Z,19.73
2019-02-18T15:09:16.460Z,20.00
2019-02-18T15:11:42.630Z,19.86
2019-02-18T15:14:09.001Z,19.78
2019-02-18T15:16:35.084Z,20.20
2019-02-18T15:19:01.345Z,19.32
2019-02-18T15:21:27.751Z,19.35
2019-02-18T15:23:53.979Z,19.40
2019-02-18T15:26:20.316Z,19.20
2019-02-18T15:28:46.383Z,19.15
2019-02-18T15:31:12.601Z,19.27
2019-02-18T15:33:38.946Z,19.71
2019-02-18T15:36:05.233Z,20.40
2019-02-18T15:38:31.575Z,20.67
2019-02-18T15:40:58.368Z,20.63
2019-02-18T15:43:24.604Z,19.95
2019-02-18T15:45:50.816Z,20.02
2019-02-18T15:48:17.037Z,19.26
2019-02-18T15:50:43.390Z,18.73
2019-02-18T15:53:09.571Z,18.87
2019-02-18T15:55:37.502Z,19.05
2019-02-18T15:58:03.705Z,19.11
2019-02-18T16:00:30.133Z,18.89
2019-02-18T16:02:56.337Z,18.65
2019-02-18T16:05:22.656Z,18.70
2019-02-18T16:07:48.919Z,18.42
2019-02-18T16:10:15.182Z,18.57
2019-02-18T16:12:41.383Z,18.57
2019-02-18T16:15:09.692Z,18.49
2019-02-18T16:17:35.811Z,18.23
2019-02-18T16:20:05.403Z,17.98
2019-02-18T16:22:31.518Z,17.94
2019-02-18T16:24:57.679Z,17.52
2019-02-18T16:27:23.783Z,17.30
2019-02-18T16:29:50.106Z,16.69
2019-02-18T16:32:21.171Z,16.52
2019-02-18T16:34:47.319Z,16.56
2019-02-18T16:37:14.936Z,16.39
2019-02-18T16:39:41.135Z,16.17
2019-02-18T16:42:14.614Z,15.94
2019-02-18T16:44:40.900Z,15.33
2019-02-18T16:47:07.246Z,15.16
2019-02-18T16:49:33.706Z,14.91
2019-02-18T16:51:59.960Z,14.50
2019-02-18T16:54:32.362Z,14.23
2019-02-18T16:57:05.216Z,13.89
2019-02-18T16:59:31.439Z,13.90
2019-02-18T17:01:57.815Z,13.65
2019-02-18T17:04:24.038Z,13.56
2019-02-18T17:06:50.161Z,13.66
2019-02-18T17:09:16.876Z,12.98
2019-02-18T17:11:43.035Z,13.06
2019-02-18T17:14:09.299Z,13.04
2019-02-18T17:16:35.407Z,12.70
2019-02-18T17:19:14.144Z,12.24
2019-02-18T17:21:40.271Z,11.97
2019-02-18T17:24:06.497Z,12.08
2019-02-18T17:26:33.004Z,12.32
2019-02-18T17:29:00.231Z,12.13
2019-02-18T17:31:26.565Z,12.07
2019-02-18T17:33:53.688Z,12.07
2019-02-18T17:36:19.908Z,11.72
2019-02-18T17:38:46.021Z,11.85
2019-02-18T17:41:18.311Z,10.88
2019-02-18T17:43:45.101Z,10.90
2019-02-18T17:46:11.859Z,11.10
2019-02-18T17:48:38.071Z,11.40
2019-02-18T17:51:06.493Z,11.47
2019-02-18T17:53:32.872Z,11.65
2019-02-18T17:55:59.010Z,11.36
2019-02-18T17:58:25.233Z,11.28
2019-02-18T18:00:53.446Z,11.32
2019-02-18T18:03:20.157Z,11.28
2019-02-18T18:05:46.378Z,11.44
2019-02-18T18:08:12.581Z,11.85
2019-02-18T18:10:45.187Z,12.32
2019-02-18T18:13:11.315Z,12.47
2019-02-18T18:15:47.089Z,12.41
2019-02-18T18:18:13.269Z,12.45
2019-02-18T18:20:45.667Z,12.48
2019-02-18T18:23:15.075Z,12.48
2019-02-18T18:25:48.329Z,12.40
2019-02-18T18:28:15.324Z,12.39
2019-02-18T18:30:44.231Z,12.20
2019-02-18T18:33:10.528Z,12.22
2019-02-18T18:35:36.798Z,12.15
2019-02-18T18:38:06.220Z,12.24
2019-02-18T18:40:39.001Z,12.05
2019-02-18T18:43:11.680Z,11.94
2019-02-18T18:45:37.847Z,12.24
2019-02-18T18:48:15.361Z,12.52
2019-02-18T18:50:41.588Z,12.54
2019-02-18T18:53:09.698Z,12.36
2019-02-18T18:55:36.039Z,12.69
2019-02-18T18:58:06.380Z,12.70
2019-02-18T19:00:32.599Z,12.72
2019-02-18T19:02:59.197Z,12.57
2019-02-18T19:05:25.401Z,12.48
2019-02-18T19:07:51.804Z,12.50
2019-02-18T19:10:18.235Z,12.45
2019-02-18T19:12:44.565Z,12.29
2019-02-18T19:15:12.580Z,12.25
2019-02-18T19:17:38.929Z,12.24
2019-02-18T19:20:08.213Z,12.10
2019-02-18T19:22:34.542Z,12.16
2019-02-18T19:25:07.775Z,12.13
2019-02-18T19:27:34.015Z,12.03
2019-02-18T19:30:00.229Z,11.94
2019-02-18T19:32:31.972Z,11.90
2019-02-18T19:35:09.964Z,11.96
2019-02-18T19:37:36.123Z,11.88
2019-02-18T19:40:09.152Z,11.63
2019-02-18T19:42:35.767Z,11.63
2019-02-18T19:45:13.131Z,11.60
2019-02-18T19:47:44.504Z,11.56
2019-02-18T19:50:10.819Z,11.46
2019-02-18T19:52:37.128Z,11.38
2019-02-18T19:55:06.330Z,11.31
2019-02-18T19:57:32.461Z,11.33
2019-02-18T19:59:58.685Z,11.23
2019-02-18T20:02:24.933Z,11.16
2019-02-18T20:04:52.160Z,11.14
2019-02-18T20:07:18.290Z,11.19
2019-02-18T20:09:44.504Z,11.19
2019-02-18T20:12:13.618Z,11.02
2019-02-18T20:14:39.920Z,10.86
2019-02-18T20:17:06.286Z,10.91
2019-02-18T20:19:32.597Z,10.89
2019-02-18T20:22:05.306Z,10.72
2019-02-18T20:24:38.654Z,10.82
2019-02-18T20:27:06.759Z,10.81
2019-02-18T20:29:32.970Z,10.89
2019-02-18T20:31:59.320Z,10.66
2019-02-18T20:34:25.448Z,10.67
2019-02-18T20:36:52.241Z,10.57
2019-02-18T20:39:22.152Z,10.54
2019-02-18T20:41:48.503Z,10.50
2019-02-18T20:44:18.071Z,10.38
2019-02-18T20:46:44.216Z,10.47
2019-02-18T20:49:10.554Z,10.51
2019-02-18T20:54:09.024Z,10.45
2019-02-18T20:56:35.161Z,10.34
2019-02-18T20:59:06.402Z,10.37
2019-02-18T21:01:39.684Z,10.21
2019-02-18T21:04:12.325Z,10.21
2019-02-18T21:06:41.412Z,10.09
2019-02-18T21:09:08.027Z,10.01
2019-02-18T21:11:34.675Z,9.97
2019-02-18T21:14:15.927Z,10.00
2019-02-18T21:16:40.688Z,9.95
2019-02-18T21:19:09.641Z,9.84
2019-02-18T21:21:36.171Z,9.65
2019-02-18T21:24:07.034Z,9.61
2019-02-18T21:26:33.235Z,9.54
2019-02-18T21:28:59.451Z,9.62
2019-02-18T21:31:25.573Z,9.62
2019-02-18T21:33:51.834Z,9.61
2019-02-18T21:36:18.065Z,9.66
2019-02-18T21:38:44.183Z,9.49
2019-02-18T21:41:10.486Z,9.53
2019-02-18T21:43:36.781Z,9.57
2019-02-18T21:46:05.035Z,9.42
2019-02-18T21:48:31.176Z,9.51
2019-02-18T21:50:57.421Z,9.47
2019-02-18T21:53:23.492Z,9.38
2019-02-18T21:55:49.761Z,9.40
2019-02-18T21:58:21.773Z,9.30
2019-02-18T22:00:49.093Z,9.17
2019-02-18T22:03:15.453Z,9.17
2019-02-18T22:05:41.587Z,9.13
2019-02-18T22:08:11.542Z,9.10
2019-02-18T22:10:37.638Z,9.07
2019-02-18T22:13:08.656Z,8.87
2019-02-18T22:15:35.032Z,8.77
2019-02-18T22:18:09.192Z,8.82
2019-02-18T22:20:35.523Z,8.87
2019-02-18T22:23:06.175Z,8.97
2019-02-18T22:25:32.366Z,8.90
2019-02-18T22:27:58.488Z,8.84
2019-02-18T22:30:24.676Z,8.81
2019-02-18T22:32:55.298Z,8.90
2019-02-18T22:35:21.385Z,8.81
2019-02-18T22:37:47.486Z,8.75
2019-02-18T22:40:13.680Z,8.66
2019-02-18T22:42:39.918Z,8.73
2019-02-18T22:45:08.202Z,8.81
2019-02-18T22:47:34.543Z,8.80
2019-02-18T22:52:40.120Z,8.73
2019-02-18T22:55:07.288Z,8.70
2019-02-18T22:57:33.502Z,8.62
2019-02-18T22:59:59.692Z,8.60
2019-02-18T23:02:26.147Z,8.54
2019-02-18T23:04:52.429Z,8.53
2019-02-18T23:07:18.518Z,8.62
2019-02-18T23:09:44.830Z,8.53
2019-02-18T23:12:11.068Z,8.44
2019-02-18T23:14:37.291Z,8.29
2019-02-18T23:17:10.979Z,8.33
2019-02-18T23:19:37.092Z,8.28
2019-02-18T23:22:04.919Z,8.38
2019-02-18T23:24:31.170Z,8.43
2019-02-18T23:26:57.485Z,8.43
2019-02-18T23:29:23.994Z,8.49
2019-02-18T23:31:50.081Z,8.50
2019-02-18T23:34:16.197Z,8.50
2019-02-18T23:36:42.564Z,8.47
2019-02-18T23:39:08.772Z,8.47
2019-02-18T23:41:35.006Z,8.41
2019-02-18T23:44:04.125Z,8.42
2019-02-18T23:46:30.464Z,8.43
2019-02-18T23:48:56.705Z,8.38
2019-02-18T23:51:22.849Z,8.37
2019-02-18T23:53:48.941Z,8.40
2019-02-18T23:56:15.023Z,8.44
2019-02-18T23:58:41.252Z,8.44
